sensor_id;sensor_type;location;lat;lon;timestamp;P1;durP1;ratioP1;P2;durP2;ratioP2
73729;SDS011;62036;48.128;16.458;2024-03-08T00:00:34;39.15;;;17.52;;
73729;SDS011;62036;48.128;16.458;2024-03-08T00:03:00;41.45;;;19.60;;
73729;SDS011;62036;48.128;16.458;2024-03-08T00:05:27;46.65;;;17.75;;
73729;SDS011;62036;48.128;16.458;2024-03-08T00:07:53;39.22;;;16.33;;
73729;SDS011;62036;48.128;16.458;2024-03-08T00:10:19;44.25;;;17.67;;
73729;SDS011;62036;48.128;16.458;2024-03-08T00:12:46;40.17;;;18.25;;
73729;SDS011;62036;48.128;16.458;2024-03-08T00:15:13;42.50;;;18.38;;
73729;SDS011;62036;48.128;16.458;2024-03-08T00:17:40;41.45;;;17.80;;
73729;SDS011;62036;48.128;16.458;2024-03-08T00:20:06;45.67;;;19.20;;
73729;SDS011;62036;48.128;16.458;2024-03-08T00:22:37;37.45;;;16.00;;
73729;SDS011;62036;48.128;16.458;2024-03-08T00:25:03;42.33;;;17.67;;
73729;SDS011;62036;48.128;16.458;2024-03-08T00:27:30;41.80;;;17.67;;
73729;SDS011;62036;48.128;16.458;2024-03-08T00:29:57;40.40;;;16.55;;
73729;SDS011;62036;48.128;16.458;2024-03-08T00:32:23;37.38;;;16.38;;
73729;SDS011;62036;48.128;16.458;2024-03-08T00:34:50;46.58;;;19.67;;
73729;SDS011;62036;48.128;16.458;2024-03-08T00:37:22;40.83;;;17.30;;
73729;SDS011;62036;48.128;16.458;2024-03-08T00:39:48;41.25;;;16.55;;
73729;SDS011;62036;48.128;16.458;2024-03-08T00:42:15;40.65;;;19.02;;
73729;SDS011;62036;48.128;16.458;2024-03-08T00:44:41;44.83;;;18.30;;
73729;SDS011;62036;48.128;16.458;2024-03-08T00:47:07;39.92;;;17.90;;
73729;SDS011;62036;48.128;16.458;2024-03-08T00:49:33;45.60;;;19.20;;
73729;SDS011;62036;48.128;16.458;2024-03-08T00:51:59;39.67;;;17.88;;
73729;SDS011;62036;48.128;16.458;2024-03-08T00:54:26;38.90;;;15.63;;
73729;SDS011;62036;48.128;16.458;2024-03-08T00:56:52;43.30;;;18.95;;
73729;SDS011;62036;48.128;16.458;2024-03-08T00:59:18;41.28;;;18.50;;
73729;SDS011;62036;48.128;16.458;2024-03-08T01:01:45;45.78;;;17.85;;
73729;SDS011;62036;48.128;16.458;2024-03-08T01:04:11;43.38;;;16.70;;
73729;SDS011;62036;48.128;16.458;2024-03-08T01:06:37;46.33;;;16.98;;
73729;SDS011;62036;48.128;16.458;2024-03-08T01:09:03;42.10;;;17.95;;
73729;SDS011;62036;48.128;16.458;2024-03-08T01:11:32;45.42;;;18.38;;
73729;SDS011;62036;48.128;16.458;2024-03-08T01:13:58;42.83;;;16.48;;
73729;SDS011;62036;48.128;16.458;2024-03-08T01:16:24;42.60;;;18.10;;
73729;SDS011;62036;48.128;16.458;2024-03-08T01:18:50;45.08;;;18.77;;
73729;SDS011;62036;48.128;16.458;2024-03-08T01:21:16;40.83;;;18.27;;
73729;SDS011;62036;48.128;16.458;2024-03-08T01:23:42;45.15;;;17.75;;
73729;SDS011;62036;48.128;16.458;2024-03-08T01:26:08;43.08;;;17.83;;
73729;SDS011;62036;48.128;16.458;2024-03-08T01:28:34;46.15;;;19.15;;
73729;SDS011;62036;48.128;16.458;2024-03-08T01:31:00;47.60;;;18.98;;
73729;SDS011;62036;48.128;16.458;2024-03-08T01:33:29;49.15;;;19.42;;
73729;SDS011;62036;48.128;16.458;2024-03-08T01:35:56;40.92;;;17.35;;
73729;SDS011;62036;48.128;16.458;2024-03-08T01:38:23;37.45;;;17.20;;
73729;SDS011;62036;48.128;16.458;2024-03-08T01:40:49;42.58;;;16.48;;
73729;SDS011;62036;48.128;16.458;2024-03-08T01:43:24;40.40;;;17.08;;
73729;SDS011;62036;48.128;16.458;2024-03-08T01:45:52;45.63;;;19.52;;
73729;SDS011;62036;48.128;16.458;2024-03-08T01:48:18;38.20;;;15.35;;
73729;SDS011;62036;48.128;16.458;2024-03-08T01:50:47;40.92;;;15.70;;
73729;SDS011;62036;48.128;16.458;2024-03-08T01:53:14;44.58;;;18.92;;
73729;SDS011;62036;48.128;16.458;2024-03-08T01:55:40;50.90;;;21.33;;
73729;SDS011;62036;48.128;16.458;2024-03-08T01:58:07;40.88;;;18.80;;
73729;SDS011;62036;48.128;16.458;2024-03-08T02:00:35;33.67;;;16.58;;
73729;SDS011;62036;48.128;16.458;2024-03-08T02:03:03;44.30;;;20.75;;
73729;SDS011;62036;48.128;16.458;2024-03-08T02:05:29;47.00;;;17.67;;
73729;SDS011;62036;48.128;16.458;2024-03-08T02:07:55;44.45;;;19.05;;
73729;SDS011;62036;48.128;16.458;2024-03-08T02:10:22;44.72;;;17.73;;
73729;SDS011;62036;48.128;16.458;2024-03-08T02:12:48;45.65;;;17.70;;
73729;SDS011;62036;48.128;16.458;2024-03-08T02:15:14;46.33;;;18.92;;
73729;SDS011;62036;48.128;16.458;2024-03-08T02:17:40;40.97;;;18.15;;
73729;SDS011;62036;48.128;16.458;2024-03-08T02:20:06;44.95;;;17.77;;
73729;SDS011;62036;48.128;16.458;2024-03-08T02:22:34;51.33;;;19.58;;
73729;SDS011;62036;48.128;16.458;2024-03-08T02:25:00;46.72;;;18.75;;
73729;SDS011;62036;48.128;16.458;2024-03-08T02:27:28;43.03;;;17.75;;
73729;SDS011;62036;48.128;16.458;2024-03-08T02:29:57;43.60;;;17.45;;
73729;SDS011;62036;48.128;16.458;2024-03-08T02:32:24;46.58;;;17.38;;
73729;SDS011;62036;48.128;16.458;2024-03-08T02:34:51;42.60;;;18.33;;
73729;SDS011;62036;48.128;16.458;2024-03-08T02:37:17;49.70;;;20.48;;
73729;SDS011;62036;48.128;16.458;2024-03-08T02:39:43;41.05;;;18.30;;
73729;SDS011;62036;48.128;16.458;2024-03-08T02:42:10;45.53;;;18.38;;
73729;SDS011;62036;48.128;16.458;2024-03-08T02:44:37;41.53;;;18.23;;
73729;SDS011;62036;48.128;16.458;2024-03-08T02:47:03;48.90;;;19.23;;
73729;SDS011;62036;48.128;16.458;2024-03-08T02:49:30;44.00;;;16.95;;
73729;SDS011;62036;48.128;16.458;2024-03-08T02:51:56;38.42;;;17.15;;
73729;SDS011;62036;48.128;16.458;2024-03-08T02:54:23;41.83;;;16.10;;
73729;SDS011;62036;48.128;16.458;2024-03-08T02:56:49;45.55;;;16.98;;
73729;SDS011;62036;48.128;16.458;2024-03-08T02:59:16;41.25;;;16.98;;
73729;SDS011;62036;48.128;16.458;2024-03-08T03:01:42;43.60;;;19.60;;
73729;SDS011;62036;48.128;16.458;2024-03-08T03:04:08;43.63;;;16.92;;
73729;SDS011;62036;48.128;16.458;2024-03-08T03:06:34;46.53;;;17.83;;
73729;SDS011;62036;48.128;16.458;2024-03-08T03:09:01;43.03;;;17.02;;
73729;SDS011;62036;48.128;16.458;2024-03-08T03:11:27;44.55;;;18.42;;
73729;SDS011;62036;48.128;16.458;2024-03-08T03:13:53;43.25;;;18.95;;
73729;SDS011;62036;48.128;16.458;2024-03-08T03:16:20;47.60;;;17.45;;
73729;SDS011;62036;48.128;16.458;2024-03-08T03:18:46;42.28;;;18.42;;
73729;SDS011;62036;48.128;16.458;2024-03-08T03:21:13;47.72;;;20.80;;
73729;SDS011;62036;48.128;16.458;2024-03-08T03:23:39;47.42;;;18.73;;
73729;SDS011;62036;48.128;16.458;2024-03-08T03:26:07;42.63;;;18.15;;
73729;SDS011;62036;48.128;16.458;2024-03-08T03:28:33;44.67;;;18.35;;
73729;SDS011;62036;48.128;16.458;2024-03-08T03:30:59;43.88;;;19.02;;
73729;SDS011;62036;48.128;16.458;2024-03-08T03:33:26;44.20;;;19.70;;
73729;SDS011;62036;48.128;16.458;2024-03-08T03:35:52;50.47;;;18.10;;
73729;SDS011;62036;48.128;16.458;2024-03-08T03:38:19;48.78;;;18.90;;
73729;SDS011;62036;48.128;16.458;2024-03-08T03:40:48;44.83;;;19.80;;
73729;SDS011;62036;48.128;16.458;2024-03-08T03:43:17;48.85;;;18.63;;
73729;SDS011;62036;48.128;16.458;2024-03-08T03:45:43;48.85;;;19.63;;
73729;SDS011;62036;48.128;16.458;2024-03-08T03:48:09;47.03;;;20.50;;
73729;SDS011;62036;48.128;16.458;2024-03-08T03:50:36;46.40;;;20.02;;
73729;SDS011;62036;48.128;16.458;2024-03-08T03:53:02;44.80;;;19.40;;
73729;SDS011;62036;48.128;16.458;2024-03-08T03:55:28;44.63;;;19.58;;
73729;SDS011;62036;48.128;16.458;2024-03-08T03:57:54;43.97;;;17.48;;
73729;SDS011;62036;48.128;16.458;2024-03-08T04:00:20;45.38;;;17.58;;
73729;SDS011;62036;48.128;16.458;2024-03-08T04:02:46;38.50;;;16.10;;
73729;SDS011;62036;48.128;16.458;2024-03-08T04:05:13;42.85;;;18.30;;
73729;SDS011;62036;48.128;16.458;2024-03-08T04:07:39;43.85;;;19.00;;
73729;SDS011;62036;48.128;16.458;2024-03-08T04:10:06;47.25;;;17.52;;
73729;SDS011;62036;48.128;16.458;2024-03-08T04:12:33;46.10;;;18.92;;
73729;SDS011;62036;48.128;16.458;2024-03-08T04:14:59;47.85;;;18.02;;
73729;SDS011;62036;48.128;16.458;2024-03-08T04:17:25;44.13;;;18.25;;
73729;SDS011;62036;48.128;16.458;2024-03-08T04:19:51;46.15;;;19.83;;
73729;SDS011;62036;48.128;16.458;2024-03-08T04:22:17;38.70;;;18.15;;
73729;SDS011;62036;48.128;16.458;2024-03-08T04:24:43;39.03;;;16.98;;
73729;SDS011;62036;48.128;16.458;2024-03-08T04:27:10;41.00;;;17.45;;
73729;SDS011;62036;48.128;16.458;2024-03-08T04:29:36;45.90;;;17.05;;
73729;SDS011;62036;48.128;16.458;2024-03-08T04:32:05;41.03;;;18.05;;
73729;SDS011;62036;48.128;16.458;2024-03-08T04:34:35;41.72;;;18.23;;
73729;SDS011;62036;48.128;16.458;2024-03-08T04:37:01;44.75;;;17.90;;
73729;SDS011;62036;48.128;16.458;2024-03-08T04:39:27;46.33;;;17.45;;
73729;SDS011;62036;48.128;16.458;2024-03-08T04:41:54;45.10;;;18.10;;
73729;SDS011;62036;48.128;16.458;2024-03-08T04:44:21;45.92;;;20.52;;
73729;SDS011;62036;48.128;16.458;2024-03-08T04:46:48;42.05;;;18.13;;
73729;SDS011;62036;48.128;16.458;2024-03-08T04:49:14;41.88;;;18.08;;
73729;SDS011;62036;48.128;16.458;2024-03-08T04:51:40;40.67;;;17.23;;
73729;SDS011;62036;48.128;16.458;2024-03-08T04:54:06;42.05;;;17.55;;
73729;SDS011;62036;48.128;16.458;2024-03-08T04:56:32;46.55;;;18.63;;
73729;SDS011;62036;48.128;16.458;2024-03-08T04:58:58;48.50;;;18.92;;
73729;SDS011;62036;48.128;16.458;2024-03-08T05:01:24;41.58;;;18.30;;
73729;SDS011;62036;48.128;16.458;2024-03-08T05:03:51;44.03;;;17.40;;
73729;SDS011;62036;48.128;16.458;2024-03-08T05:06:20;42.10;;;18.92;;
73729;SDS011;62036;48.128;16.458;2024-03-08T05:08:46;40.65;;;16.00;;
73729;SDS011;62036;48.128;16.458;2024-03-08T05:11:12;43.03;;;19.05;;
73729;SDS011;62036;48.128;16.458;2024-03-08T05:13:39;50.40;;;19.30;;
73729;SDS011;62036;48.128;16.458;2024-03-08T05:16:06;41.78;;;17.17;;
73729;SDS011;62036;48.128;16.458;2024-03-08T05:18:33;44.67;;;18.95;;
73729;SDS011;62036;48.128;16.458;2024-03-08T05:21:01;46.35;;;18.17;;
73729;SDS011;62036;48.128;16.458;2024-03-08T05:23:29;39.78;;;17.77;;
73729;SDS011;62036;48.128;16.458;2024-03-08T05:25:55;40.35;;;17.40;;
73729;SDS011;62036;48.128;16.458;2024-03-08T05:28:21;40.38;;;17.65;;
73729;SDS011;62036;48.128;16.458;2024-03-08T05:30:47;45.45;;;17.23;;
73729;SDS011;62036;48.128;16.458;2024-03-08T05:33:13;41.10;;;17.10;;
73729;SDS011;62036;48.128;16.458;2024-03-08T05:35:39;41.00;;;17.42;;
73729;SDS011;62036;48.128;16.458;2024-03-08T05:38:05;43.50;;;17.13;;
73729;SDS011;62036;48.128;16.458;2024-03-08T05:40:32;36.05;;;17.15;;
73729;SDS011;62036;48.128;16.458;2024-03-08T05:42:58;46.88;;;17.85;;
73729;SDS011;62036;48.128;16.458;2024-03-08T05:45:24;42.83;;;18.60;;
73729;SDS011;62036;48.128;16.458;2024-03-08T05:47:51;40.88;;;19.00;;
73729;SDS011;62036;48.128;16.458;2024-03-08T05:50:17;36.65;;;16.35;;
73729;SDS011;62036;48.128;16.458;2024-03-08T05:52:44;41.83;;;18.85;;
73729;SDS011;62036;48.128;16.458;2024-03-08T05:55:10;39.63;;;18.90;;
73729;SDS011;62036;48.128;16.458;2024-03-08T05:57:39;40.75;;;17.45;;
73729;SDS011;62036;48.128;16.458;2024-03-08T06:00:05;42.42;;;18.40;;
73729;SDS011;62036;48.128;16.458;2024-03-08T06:02:31;39.17;;;18.00;;
73729;SDS011;62036;48.128;16.458;2024-03-08T06:04:58;42.47;;;19.33;;
73729;SDS011;62036;48.128;16.458;2024-03-08T06:07:27;41.00;;;18.33;;
73729;SDS011;62036;48.128;16.458;2024-03-08T06:09:53;43.08;;;19.13;;
73729;SDS011;62036;48.128;16.458;2024-03-08T06:12:19;41.63;;;17.50;;
73729;SDS011;62036;48.128;16.458;2024-03-08T06:14:45;39.33;;;16.65;;
73729;SDS011;62036;48.128;16.458;2024-03-08T06:17:11;45.05;;;19.27;;
73729;SDS011;62036;48.128;16.458;2024-03-08T06:19:37;45.42;;;17.58;;
73729;SDS011;62036;48.128;16.458;2024-03-08T06:22:03;45.35;;;17.70;;
73729;SDS011;62036;48.128;16.458;2024-03-08T06:24:31;42.38;;;18.92;;
73729;SDS011;62036;48.128;16.458;2024-03-08T06:26:57;40.78;;;18.20;;
73729;SDS011;62036;48.128;16.458;2024-03-08T06:29:23;48.92;;;18.73;;
73729;SDS011;62036;48.128;16.458;2024-03-08T06:31:49;42.58;;;19.45;;
73729;SDS011;62036;48.128;16.458;2024-03-08T06:34:15;44.97;;;19.73;;
73729;SDS011;62036;48.128;16.458;2024-03-08T06:36:43;40.88;;;18.63;;
73729;SDS011;62036;48.128;16.458;2024-03-08T06:39:09;42.75;;;20.40;;
73729;SDS011;62036;48.128;16.458;2024-03-08T06:41:38;39.22;;;18.17;;
73729;SDS011;62036;48.128;16.458;2024-03-08T06:44:04;42.35;;;19.45;;
73729;SDS011;62036;48.128;16.458;2024-03-08T06:46:32;40.65;;;18.08;;
73729;SDS011;62036;48.128;16.458;2024-03-08T06:48:58;44.60;;;18.77;;
73729;SDS011;62036;48.128;16.458;2024-03-08T06:51:24;43.63;;;17.17;;
73729;SDS011;62036;48.128;16.458;2024-03-08T06:53:50;38.10;;;16.88;;
73729;SDS011;62036;48.128;16.458;2024-03-08T06:56:18;39.95;;;18.42;;
73729;SDS011;62036;48.128;16.458;2024-03-08T06:58:44;40.53;;;17.70;;
73729;SDS011;62036;48.128;16.458;2024-03-08T07:01:10;46.58;;;18.52;;
73729;SDS011;62036;48.128;16.458;2024-03-08T07:03:39;41.40;;;20.23;;
73729;SDS011;62036;48.128;16.458;2024-03-08T07:06:09;42.15;;;18.27;;
73729;SDS011;62036;48.128;16.458;2024-03-08T07:08:35;40.22;;;17.40;;
73729;SDS011;62036;48.128;16.458;2024-03-08T07:11:01;44.72;;;19.27;;
73729;SDS011;62036;48.128;16.458;2024-03-08T07:13:28;39.03;;;18.30;;
73729;SDS011;62036;48.128;16.458;2024-03-08T07:15:54;42.10;;;19.63;;
73729;SDS011;62036;48.128;16.458;2024-03-08T07:18:20;40.15;;;17.30;;
73729;SDS011;62036;48.128;16.458;2024-03-08T07:20:47;39.20;;;17.13;;
73729;SDS011;62036;48.128;16.458;2024-03-08T07:23:14;41.88;;;18.77;;
73729;SDS011;62036;48.128;16.458;2024-03-08T07:26:00;40.25;;;16.08;;
73729;SDS011;62036;48.128;16.458;2024-03-08T07:28:26;45.67;;;18.42;;
73729;SDS011;62036;48.128;16.458;2024-03-08T07:30:52;40.55;;;19.05;;
73729;SDS011;62036;48.128;16.458;2024-03-08T07:33:33;43.65;;;19.83;;
73729;SDS011;62036;48.128;16.458;2024-03-08T07:35:59;38.80;;;18.05;;
73729;SDS011;62036;48.128;16.458;2024-03-08T07:38:26;44.58;;;19.83;;
73729;SDS011;62036;48.128;16.458;2024-03-08T07:40:52;39.63;;;17.17;;
73729;SDS011;62036;48.128;16.458;2024-03-08T07:43:18;39.30;;;16.20;;
73729;SDS011;62036;48.128;16.458;2024-03-08T07:45:44;41.30;;;17.83;;
73729;SDS011;62036;48.128;16.458;2024-03-08T07:48:10;41.70;;;17.10;;
73729;SDS011;62036;48.128;16.458;2024-03-08T07:50:38;37.90;;;17.05;;
73729;SDS011;62036;48.128;16.458;2024-03-08T07:53:04;45.53;;;19.88;;
73729;SDS011;62036;48.128;16.458;2024-03-08T07:55:32;39.38;;;20.00;;
73729;SDS011;62036;48.128;16.458;2024-03-08T07:57:58;39.38;;;17.02;;
73729;SDS011;62036;48.128;16.458;2024-03-08T08:00:25;38.53;;;18.67;;
73729;SDS011;62036;48.128;16.458;2024-03-08T08:02:52;40.92;;;17.38;;
73729;SDS011;62036;48.128;16.458;2024-03-08T08:05:18;38.25;;;17.00;;
73729;SDS011;62036;48.128;16.458;2024-03-08T08:07:44;40.55;;;18.40;;
73729;SDS011;62036;48.128;16.458;2024-03-08T08:10:14;41.45;;;18.27;;
73729;SDS011;62036;48.128;16.458;2024-03-08T08:12:50;35.97;;;16.20;;
73729;SDS011;62036;48.128;16.458;2024-03-08T08:15:19;44.45;;;19.05;;
73729;SDS011;62036;48.128;16.458;2024-03-08T08:17:45;41.67;;;17.33;;
73729;SDS011;62036;48.128;16.458;2024-03-08T08:20:12;44.80;;;20.38;;
73729;SDS011;62036;48.128;16.458;2024-03-08T08:22:39;44.10;;;20.48;;
73729;SDS011;62036;48.128;16.458;2024-03-08T08:25:06;42.25;;;17.90;;
73729;SDS011;62036;48.128;16.458;2024-03-08T08:27:32;42.92;;;17.88;;
73729;SDS011;62036;48.128;16.458;2024-03-08T08:29:58;38.75;;;17.33;;
73729;SDS011;62036;48.128;16.458;2024-03-08T08:32:25;46.13;;;19.58;;
73729;SDS011;62036;48.128;16.458;2024-03-08T08:34:51;43.05;;;19.05;;
73729;SDS011;62036;48.128;16.458;2024-03-08T08:37:17;39.85;;;18.20;;
73729;SDS011;62036;48.128;16.458;2024-03-08T08:39:43;44.80;;;18.38;;
73729;SDS011;62036;48.128;16.458;2024-03-08T08:42:09;42.50;;;18.02;;
73729;SDS011;62036;48.128;16.458;2024-03-08T08:44:36;46.85;;;18.73;;
73729;SDS011;62036;48.128;16.458;2024-03-08T08:47:02;43.38;;;18.55;;
73729;SDS011;62036;48.128;16.458;2024-03-08T08:49:29;50.33;;;18.63;;
73729;SDS011;62036;48.128;16.458;2024-03-08T08:51:55;53.45;;;22.00;;
73729;SDS011;62036;48.128;16.458;2024-03-08T08:54:23;44.58;;;18.77;;
73729;SDS011;62036;48.128;16.458;2024-03-08T08:56:50;45.95;;;20.40;;
73729;SDS011;62036;48.128;16.458;2024-03-08T08:59:16;48.92;;;19.58;;
73729;SDS011;62036;48.128;16.458;2024-03-08T09:01:48;48.53;;;19.77;;
73729;SDS011;62036;48.128;16.458;2024-03-08T09:04:15;51.28;;;21.67;;
73729;SDS011;62036;48.128;16.458;2024-03-08T09:06:41;56.53;;;21.85;;
73729;SDS011;62036;48.128;16.458;2024-03-08T09:09:07;50.85;;;21.25;;
73729;SDS011;62036;48.128;16.458;2024-03-08T09:11:34;44.22;;;18.17;;
73729;SDS011;62036;48.128;16.458;2024-03-08T09:14:00;51.85;;;18.67;;
73729;SDS011;62036;48.128;16.458;2024-03-08T09:16:27;52.75;;;18.90;;
73729;SDS011;62036;48.128;16.458;2024-03-08T09:18:53;49.95;;;18.95;;
73729;SDS011;62036;48.128;16.458;2024-03-08T09:21:19;51.92;;;19.13;;
73729;SDS011;62036;48.128;16.458;2024-03-08T09:23:45;44.00;;;19.70;;
73729;SDS011;62036;48.128;16.458;2024-03-08T09:26:11;54.95;;;21.02;;
73729;SDS011;62036;48.128;16.458;2024-03-08T09:28:38;58.03;;;24.25;;
73729;SDS011;62036;48.128;16.458;2024-03-08T09:31:04;61.58;;;21.92;;
73729;SDS011;62036;48.128;16.458;2024-03-08T09:33:30;52.40;;;18.90;;
73729;SDS011;62036;48.128;16.458;2024-03-08T09:35:56;62.10;;;19.23;;
73729;SDS011;62036;48.128;16.458;2024-03-08T09:38:23;55.15;;;20.92;;
73729;SDS011;62036;48.128;16.458;2024-03-08T09:40:50;51.63;;;19.65;;
73729;SDS011;62036;48.128;16.458;2024-03-08T09:43:16;60.95;;;19.48;;
73729;SDS011;62036;48.128;16.458;2024-03-08T09:45:43;53.50;;;20.08;;
73729;SDS011;62036;48.128;16.458;2024-03-08T09:48:11;54.50;;;19.58;;
73729;SDS011;62036;48.128;16.458;2024-03-08T09:50:39;51.90;;;18.25;;
73729;SDS011;62036;48.128;16.458;2024-03-08T09:53:06;52.13;;;19.85;;
73729;SDS011;62036;48.128;16.458;2024-03-08T09:55:34;50.60;;;18.95;;
73729;SDS011;62036;48.128;16.458;2024-03-08T09:58:01;41.17;;;18.08;;
73729;SDS011;62036;48.128;16.458;2024-03-08T10:00:46;48.03;;;17.05;;
73729;SDS011;62036;48.128;16.458;2024-03-08T10:03:12;46.22;;;16.75;;
73729;SDS011;62036;48.128;16.458;2024-03-08T10:05:40;42.92;;;16.67;;
73729;SDS011;62036;48.128;16.458;2024-03-08T10:08:09;46.00;;;17.25;;
73729;SDS011;62036;48.128;16.458;2024-03-08T10:10:37;44.05;;;17.20;;
73729;SDS011;62036;48.128;16.458;2024-03-08T10:13:09;43.35;;;16.92;;
73729;SDS011;62036;48.128;16.458;2024-03-08T10:15:37;35.35;;;14.45;;
73729;SDS011;62036;48.128;16.458;2024-03-08T10:18:05;39.05;;;15.52;;
73729;SDS011;62036;48.128;16.458;2024-03-08T10:20:32;42.67;;;16.45;;
73729;SDS011;62036;48.128;16.458;2024-03-08T10:23:02;37.03;;;14.75;;
73729;SDS011;62036;48.128;16.458;2024-03-08T10:25:32;40.83;;;18.05;;
73729;SDS011;62036;48.128;16.458;2024-03-08T10:27:58;39.58;;;15.35;;
73729;SDS011;62036;48.128;16.458;2024-03-08T10:30:24;40.88;;;15.20;;
73729;SDS011;62036;48.128;16.458;2024-03-08T10:32:50;43.88;;;16.05;;
73729;SDS011;62036;48.128;16.458;2024-03-08T10:35:16;36.95;;;16.63;;
73729;SDS011;62036;48.128;16.458;2024-03-08T10:37:49;34.25;;;13.50;;
73729;SDS011;62036;48.128;16.458;2024-03-08T10:42:54;30.88;;;12.98;;
73729;SDS011;62036;48.128;16.458;2024-03-08T10:47:59;25.58;;;11.80;;
73729;SDS011;62036;48.128;16.458;2024-03-08T10:50:28;30.02;;;11.77;;
73729;SDS011;62036;48.128;16.458;2024-03-08T10:52:54;28.20;;;11.98;;
73729;SDS011;62036;48.128;16.458;2024-03-08T10:55:23;25.45;;;11.77;;
73729;SDS011;62036;48.128;16.458;2024-03-08T10:57:51;27.48;;;11.07;;
73729;SDS011;62036;48.128;16.458;2024-03-08T11:00:19;30.35;;;12.68;;
73729;SDS011;62036;48.128;16.458;2024-03-08T11:03:00;23.17;;;9.73;;
73729;SDS011;62036;48.128;16.458;2024-03-08T11:05:41;20.27;;;9.50;;
73729;SDS011;62036;48.128;16.458;2024-03-08T11:08:16;24.58;;;10.80;;
73729;SDS011;62036;48.128;16.458;2024-03-08T11:10:52;25.58;;;9.98;;
73729;SDS011;62036;48.128;16.458;2024-03-08T11:13:42;18.92;;;8.13;;
73729;SDS011;62036;48.128;16.458;2024-03-08T11:16:12;18.17;;;8.00;;
73729;SDS011;62036;48.128;16.458;2024-03-08T11:18:41;16.75;;;7.53;;
73729;SDS011;62036;48.128;16.458;2024-03-08T11:21:08;13.35;;;8.00;;
73729;SDS011;62036;48.128;16.458;2024-03-08T11:23:37;20.30;;;7.95;;
73729;SDS011;62036;48.128;16.458;2024-03-08T11:26:17;19.42;;;9.15;;
73729;SDS011;62036;48.128;16.458;2024-03-08T11:28:43;22.20;;;9.77;;
73729;SDS011;62036;48.128;16.458;2024-03-08T11:33:38;17.77;;;7.88;;
73729;SDS011;62036;48.128;16.458;2024-03-08T11:38:44;22.05;;;9.77;;
73729;SDS011;62036;48.128;16.458;2024-03-08T11:41:13;15.18;;;7.47;;
73729;SDS011;62036;48.128;16.458;2024-03-08T11:43:42;15.23;;;8.18;;
73729;SDS011;62036;48.128;16.458;2024-03-08T11:46:12;14.95;;;8.07;;
73729;SDS011;62036;48.128;16.458;2024-03-08T11:48:42;18.27;;;8.88;;
73729;SDS011;62036;48.128;16.458;2024-03-08T11:51:09;14.70;;;7.70;;
73729;SDS011;62036;48.128;16.458;2024-03-08T11:53:36;16.60;;;7.65;;
73729;SDS011;62036;48.128;16.458;2024-03-08T11:56:20;17.13;;;8.68;;
73729;SDS011;62036;48.128;16.458;2024-03-08T11:58:53;18.73;;;10.43;;
73729;SDS011;62036;48.128;16.458;2024-03-08T12:01:23;19.27;;;8.60;;
73729;SDS011;62036;48.128;16.458;2024-03-08T12:03:55;18.33;;;8.73;;
73729;SDS011;62036;48.128;16.458;2024-03-08T12:06:25;18.35;;;8.30;;
73729;SDS011;62036;48.128;16.458;2024-03-08T12:08:52;20.63;;;9.95;;
73729;SDS011;62036;48.128;16.458;2024-03-08T12:11:18;16.45;;;7.95;;
73729;SDS011;62036;48.128;16.458;2024-03-08T12:13:48;16.55;;;9.05;;
73729;SDS011;62036;48.128;16.458;2024-03-08T12:16:16;17.35;;;8.15;;
73729;SDS011;62036;48.128;16.458;2024-03-08T12:18:43;18.17;;;7.18;;
73729;SDS011;62036;48.128;16.458;2024-03-08T12:21:11;14.07;;;7.45;;
73729;SDS011;62036;48.128;16.458;2024-03-08T12:23:45;16.33;;;7.60;;
73729;SDS011;62036;48.128;16.458;2024-03-08T12:26:23;14.85;;;6.65;;
73729;SDS011;62036;48.128;16.458;2024-03-08T12:28:50;13.90;;;7.65;;
73729;SDS011;62036;48.128;16.458;2024-03-08T12:31:17;12.65;;;7.40;;
73729;SDS011;62036;48.128;16.458;2024-03-08T12:36:14;11.75;;;6.15;;
73729;SDS011;62036;48.128;16.458;2024-03-08T12:38:43;14.20;;;7.00;;
73729;SDS011;62036;48.128;16.458;2024-03-08T12:41:13;13.65;;;6.82;;
73729;SDS011;62036;48.128;16.458;2024-03-08T12:43:39;15.13;;;7.00;;
73729;SDS011;62036;48.128;16.458;2024-03-08T12:46:05;13.20;;;7.55;;
73729;SDS011;62036;48.128;16.458;2024-03-08T12:48:35;11.48;;;6.50;;
73729;SDS011;62036;48.128;16.458;2024-03-08T12:51:05;13.15;;;6.47;;
73729;SDS011;62036;48.128;16.458;2024-03-08T12:53:32;12.48;;;6.53;;
73729;SDS011;62036;48.128;16.458;2024-03-08T12:55:58;12.23;;;6.20;;
73729;SDS011;62036;48.128;16.458;2024-03-08T12:58:24;10.88;;;5.57;;
73729;SDS011;62036;48.128;16.458;2024-03-08T13:00:53;10.80;;;5.97;;
73729;SDS011;62036;48.128;16.458;2024-03-08T13:03:19;10.63;;;5.97;;
73729;SDS011;62036;48.128;16.458;2024-03-08T13:05:47;9.80;;;5.82;;
73729;SDS011;62036;48.128;16.458;2024-03-08T13:08:14;11.07;;;6.32;;
73729;SDS011;62036;48.128;16.458;2024-03-08T13:10:41;9.82;;;5.18;;
73729;SDS011;62036;48.128;16.458;2024-03-08T13:13:08;10.85;;;5.68;;
73729;SDS011;62036;48.128;16.458;2024-03-08T13:15:35;9.60;;;5.50;;
73729;SDS011;62036;48.128;16.458;2024-03-08T13:18:01;10.60;;;5.45;;
73729;SDS011;62036;48.128;16.458;2024-03-08T13:20:28;8.00;;;4.35;;
73729;SDS011;62036;48.128;16.458;2024-03-08T13:22:54;9.80;;;6.15;;
73729;SDS011;62036;48.128;16.458;2024-03-08T13:25:21;10.88;;;5.68;;
73729;SDS011;62036;48.128;16.458;2024-03-08T13:27:48;11.00;;;4.95;;
73729;SDS011;62036;48.128;16.458;2024-03-08T13:30:15;12.13;;;6.22;;
73729;SDS011;62036;48.128;16.458;2024-03-08T13:32:43;11.40;;;5.68;;
73729;SDS011;62036;48.128;16.458;2024-03-08T13:35:10;13.60;;;6.43;;
73729;SDS011;62036;48.128;16.458;2024-03-08T13:37:42;11.18;;;6.13;;
73729;SDS011;62036;48.128;16.458;2024-03-08T13:40:09;11.40;;;5.93;;
73729;SDS011;62036;48.128;16.458;2024-03-08T13:42:45;10.02;;;5.13;;
73729;SDS011;62036;48.128;16.458;2024-03-08T13:45:12;12.00;;;6.00;;
73729;SDS011;62036;48.128;16.458;2024-03-08T13:47:39;15.20;;;6.88;;
73729;SDS011;62036;48.128;16.458;2024-03-08T13:50:09;11.65;;;6.28;;
73729;SDS011;62036;48.128;16.458;2024-03-08T13:52:37;13.68;;;7.20;;
73729;SDS011;62036;48.128;16.458;2024-03-08T13:55:04;13.73;;;7.22;;
73729;SDS011;62036;48.128;16.458;2024-03-08T13:57:30;15.05;;;6.97;;
73729;SDS011;62036;48.128;16.458;2024-03-08T13:59:57;14.73;;;7.72;;
73729;SDS011;62036;48.128;16.458;2024-03-08T14:02:23;11.10;;;6.32;;
73729;SDS011;62036;48.128;16.458;2024-03-08T14:04:53;16.40;;;6.95;;
73729;SDS011;62036;48.128;16.458;2024-03-08T14:07:22;15.00;;;8.25;;
73729;SDS011;62036;48.128;16.458;2024-03-08T14:09:49;13.73;;;6.32;;
73729;SDS011;62036;48.128;16.458;2024-03-08T14:12:17;15.20;;;7.45;;
73729;SDS011;62036;48.128;16.458;2024-03-08T14:14:44;16.98;;;7.35;;
73729;SDS011;62036;48.128;16.458;2024-03-08T14:17:10;14.88;;;7.07;;
73729;SDS011;62036;48.128;16.458;2024-03-08T14:19:41;14.20;;;7.50;;
73729;SDS011;62036;48.128;16.458;2024-03-08T14:22:07;13.70;;;6.93;;
73729;SDS011;62036;48.128;16.458;2024-03-08T14:24:38;13.75;;;6.93;;